Time;durP1;ratioP1;P1;durP2;ratioP2;P2;SDS_P1;SDS_P2;PMS_P1;PMS_P2;Temp;Humidity;BMP_temperature;BMP_pressure;BME280_temperature;BME280_humidity;BME280_pressure;Samples;Min_cycle;Max_cycle;Signal;HPM_P1;HPM_P2
2022/08/01 00:00:43;;;;;;;;;;;21.90;80.30;;;;;;5050010;28;19909;-69
2022/08/01 00:03:08;;;;;;;;;;;21.90;80.30;;;;;;5064049;28;19920;-68
2022/08/01 00:05:34;;;;;;;;;;;21.90;80.30;;;;;;5043001;28;20371;-68
2022/08/01 00:08:00;;;;;;;;;;;21.80;80.30;;;;;;5050728;28;19944;-68
2022/08/01 00:10:31;;;;;;;;;;;21.80;80.30;;;;;;5046239;28;19909;-69
2022/08/01 00:12:57;;;;;;;;;;;21.70;80.30;;;;;;5052102;28;19920;-68
2022/08/01 00:15:28;;;;;;;;;;;21.80;80.30;;;;;;5066151;28;19916;-68
2022/08/01 00:17:54;;;;;;;;;;;21.80;80.20;;;;;;5048801;28;20347;-68
2022/08/01 00:20:19;;;;;;;;;;;21.80;80.10;;;;;;5065851;28;19916;-69
2022/08/01 00:22:45;;;;;;;;;;;21.80;80.10;;;;;;5049365;28;20014;-68
2022/08/01 00:25:10;;;;;;;;;;;21.70;80.00;;;;;;5051258;28;20083;-68
2022/08/01 00:27:36;;;;;;;;;;;21.70;80.00;;;;;;5052276;28;20012;-68
2022/08/01 00:30:02;;;;;;;;;;;21.70;79.90;;;;;;5049449;28;19970;-68
2022/08/01 00:32:29;;;;;;;;;;;21.70;80.00;;;;;;5049544;28;20339;-68
2022/08/01 00:34:55;;;;;;;;;;;21.70;80.00;;;;;;5064069;28;19955;-68
2022/08/01 00:37:20;;;;;;;;;;;21.70;79.90;;;;;;5051152;28;19916;-69
2022/08/01 00:39:46;;;;;;;;;;;21.70;79.80;;;;;;5050176;28;20482;-68
2022/08/01 00:42:12;;;;;;;;;;;21.70;79.80;;;;;;5050527;28;19917;-68
2022/08/01 00:44:38;;;;;;;;;;;21.70;79.80;;;;;;5049426;28;19913;-68
2022/08/01 00:47:04;;;;;;;;;;;21.70;79.80;;;;;;5046760;28;20269;-68
2022/08/01 00:49:29;;;;;;;;;;;21.70;79.80;;;;;;5049931;28;19912;-69
2022/08/01 00:51:55;;;;;;;;;;;21.70;79.80;;;;;;5066122;28;20036;-68
2022/08/01 00:54:21;;;;;;;;;;;21.70;79.80;;;;;;5049234;28;20391;-68
2022/08/01 00:56:47;;;;;;;;;;;21.70;79.70;;;;;;5050329;28;19999;-68
2022/08/01 00:59:13;;;;;;;;;;;21.70;79.70;;;;;;5050509;28;19909;-68
2022/08/01 01:01:39;;;;;;;;;;;21.70;79.70;;;;;;5046796;28;19912;-68
2022/08/01 01:04:05;;;;;;;;;;;21.70;79.60;;;;;;5043894;28;19950;-68
2022/08/01 01:06:39;;;;;;;;;;;21.70;79.70;;;;;;5049048;28;19917;-68
2022/08/01 01:09:05;;;;;;;;;;;21.70;79.80;;;;;;5050315;28;19912;-68
2022/08/01 01:11:44;;;;;;;;;;;21.70;79.90;;;;;;5050377;28;19964;-68
2022/08/01 01:14:13;;;;;;;;;;;21.60;79.80;;;;;;5066359;28;19921;-68
2022/08/01 01:16:40;;;;;;;;;;;21.60;79.70;;;;;;5050619;28;19913;-68
2022/08/01 01:19:08;;;;;;;;;;;21.60;79.80;;;;;;5049805;28;20410;-68
2022/08/01 01:21:40;;;;;;;;;;;21.60;79.80;;;;;;5049713;28;19915;-68
2022/08/01 01:24:06;;;;;;;;;;;21.50;79.90;;;;;;5050463;28;20269;-68
2022/08/01 01:26:38;;;;;;;;;;;21.60;80.00;;;;;;5046467;28;19924;-69
2022/08/01 01:29:06;;;;;;;;;;;21.60;80.00;;;;;;5050872;28;20268;-68
2022/08/01 01:31:36;;;;;;;;;;;21.50;79.90;;;;;;5037595;28;19909;-68
2022/08/01 01:34:02;;;;;;;;;;;21.50;80.00;;;;;;5050937;28;19909;-68
2022/08/01 01:36:32;;;;;;;;;;;21.50;80.00;;;;;;5050127;28;19908;-68
2022/08/01 01:39:06;;;;;;;;;;;21.50;79.90;;;;;;5050154;28;19956;-68
2022/08/01 01:41:32;;;;;;;;;;;21.50;79.80;;;;;;5049427;28;20008;-68
2022/08/01 01:43:59;;;;;;;;;;;21.50;79.80;;;;;;5066416;28;19967;-68
2022/08/01 01:46:26;;;;;;;;;;;21.50;79.70;;;;;;5050539;28;19916;-68
2022/08/01 01:48:53;;;;;;;;;;;21.50;79.70;;;;;;5050327;28;20631;-68
2022/08/01 01:51:20;;;;;;;;;;;21.50;79.60;;;;;;5049270;28;19920;-68
2022/08/01 01:54:02;;;;;;;;;;;21.50;79.60;;;;;;5047020;28;20331;-68
2022/08/01 01:56:28;;;;;;;;;;;21.50;79.60;;;;;;5048119;28;19992;-68
2022/08/01 01:58:56;;;;;;;;;;;21.50;79.70;;;;;;5048283;28;19912;-68
2022/08/01 02:01:34;;;;;;;;;;;21.50;79.60;;;;;;5048972;28;19912;-68
2022/08/01 02:04:02;;;;;;;;;;;21.40;79.60;;;;;;5047456;28;20540;-68
2022/08/01 02:06:28;;;;;;;;;;;21.40;79.70;;;;;;5048427;28;19913;-68
2022/08/01 02:08:54;;;;;;;;;;;21.40;79.80;;;;;;5068324;28;19917;-69
2022/08/01 02:11:21;;;;;;;;;;;21.40;79.90;;;;;;5052705;28;19925;-68
2022/08/01 02:14:02;;;;;;;;;;;21.40;79.90;;;;;;5053255;28;19960;-68
2022/08/01 02:16:30;;;;;;;;;;;21.40;79.90;;;;;;5052629;28;19984;-68
2022/08/01 02:18:56;;;;;;;;;;;21.40;79.80;;;;;;5053597;28;19905;-68
2022/08/01 02:21:29;;;;;;;;;;;21.40;79.70;;;;;;5051962;28;19931;-68
2022/08/01 02:23:57;;;;;;;;;;;21.40;79.90;;;;;;5053459;28;19927;-68
2022/08/01 02:26:22;;;;;;;;;;;21.30;79.90;;;;;;5051987;28;20299;-68
2022/08/01 02:28:50;;;;;;;;;;;21.40;80.00;;;;;;5067262;28;19909;-68
2022/08/01 02:31:18;;;;;;;;;;;21.30;80.00;;;;;;5052491;28;19962;-68
2022/08/01 02:33:49;;;;;;;;;;;21.30;80.10;;;;;;5052304;28;20276;-68
2022/08/01 02:36:16;;;;;;;;;;;21.30;80.10;;;;;;5048345;28;19916;-67
2022/08/01 02:38:43;;;;;;;;;;;21.30;80.20;;;;;;5051150;28;20379;-67
2022/08/01 02:41:12;;;;;;;;;;;21.30;80.60;;;;;;5052950;28;19917;-67
2022/08/01 02:43:40;;;;;;;;;;;21.20;80.70;;;;;;5052579;28;20016;-67
2022/08/01 02:46:08;;;;;;;;;;;21.20;80.90;;;;;;5052775;28;20013;-67
2022/08/01 02:48:34;;;;;;;;;;;21.20;80.90;;;;;;5051376;28;19909;-68
2022/08/01 02:51:01;;;;;;;;;;;21.20;81.00;;;;;;5039635;28;19916;-68
2022/08/01 02:53:27;;;;;;;;;;;21.20;81.00;;;;;;5068123;28;19911;-67
2022/08/01 02:55:53;;;;;;;;;;;21.20;81.00;;;;;;5050288;28;20331;-67
2022/08/01 02:58:20;;;;;;;;;;;21.30;81.10;;;;;;5052759;28;20291;-67
2022/08/01 03:00:46;;;;;;;;;;;21.30;81.10;;;;;;5051648;28;20003;-67
2022/08/01 03:03:12;;;;;;;;;;;21.30;81.20;;;;;;5052571;28;20000;-68
2022/08/01 03:05:39;;;;;;;;;;;21.20;81.30;;;;;;5044239;28;19919;-68
2022/08/01 03:08:06;;;;;;;;;;;21.20;81.30;;;;;;5038445;28;20363;-68
2022/08/01 03:10:32;;;;;;;;;;;21.20;81.30;;;;;;5051252;28;19919;-68
2022/08/01 03:13:00;;;;;;;;;;;21.20;81.30;;;;;;5051019;28;19917;-68
2022/08/01 03:15:26;;;;;;;;;;;21.20;81.40;;;;;;5052662;28;19912;-68
2022/08/01 03:17:52;;;;;;;;;;;21.20;81.30;;;;;;5066302;28;19909;-68
2022/08/01 03:20:19;;;;;;;;;;;21.20;81.50;;;;;;5051361;28;19908;-68
2022/08/01 03:22:45;;;;;;;;;;;21.20;81.50;;;;;;5052196;28;19915;-68
2022/08/01 03:25:12;;;;;;;;;;;21.10;81.40;;;;;;5051841;28;20600;-68
2022/08/01 03:27:39;;;;;;;;;;;21.10;81.40;;;;;;5052652;28;20375;-69
2022/08/01 03:30:05;;;;;;;;;;;21.10;81.30;;;;;;5053814;28;20364;-68
2022/08/01 03:32:31;;;;;;;;;;;21.10;81.40;;;;;;5051454;28;19917;-69
2022/08/01 03:34:57;;;;;;;;;;;21.10;81.40;;;;;;5048333;28;19913;-68
2022/08/01 03:37:27;;;;;;;;;;;21.10;81.50;;;;;;5051681;28;19916;-68
2022/08/01 03:40:19;;;;;;;;;;;21.00;81.50;;;;;;5050706;28;19909;-68
2022/08/01 03:42:47;;;;;;;;;;;21.00;81.50;;;;;;5027449;28;19955;-68
2022/08/01 03:45:19;;;;;;;;;;;21.10;81.40;;;;;;5050819;28;20411;-68
2022/08/01 03:47:46;;;;;;;;;;;21.10;81.40;;;;;;5050418;28;19909;-68
2022/08/01 03:50:13;;;;;;;;;;;21.10;81.40;;;;;;5051581;28;19995;-67
2022/08/01 03:52:39;;;;;;;;;;;21.10;81.30;;;;;;5043894;28;19955;-67
2022/08/01 03:55:09;;;;;;;;;;;21.10;81.20;;;;;;5047315;28;19916;-68
2022/08/01 03:57:35;;;;;;;;;;;21.10;81.20;;;;;;5050966;28;19959;-67
2022/08/01 04:00:00;;;;;;;;;;;21.10;81.10;;;;;;5050979;28;19940;-67
2022/08/01 04:02:27;;;;;;;;;;;21.10;81.10;;;;;;5049326;28;19952;-68
2022/08/01 04:04:53;;;;;;;;;;;21.10;81.00;;;;;;5049134;28;19966;-68
2022/08/01 04:07:23;;;;;;;;;;;21.10;81.00;;;;;;5051025;28;19936;-68
2022/08/01 04:09:48;;;;;;;;;;;21.10;81.00;;;;;;5050263;28;19909;-69
2022/08/01 04:12:14;;;;;;;;;;;21.00;81.10;;;;;;5046241;28;20020;-69
2022/08/01 04:14:39;;;;;;;;;;;21.00;81.30;;;;;;5050549;28;19909;-67
2022/08/01 04:17:05;;;;;;;;;;;21.00;81.40;;;;;;5058370;28;20360;-67
2022/08/01 04:19:30;;;;;;;;;;;21.00;81.50;;;;;;5044458;28;19919;-67
2022/08/01 04:21:56;;;;;;;;;;;20.90;81.50;;;;;;5066142;28;19908;-67
2022/08/01 04:24:23;;;;;;;;;;;20.90;81.50;;;;;;5051016;28;20288;-67
2022/08/01 04:26:50;;;;;;;;;;;20.90;81.40;;;;;;5051155;28;19919;-67
2022/08/01 04:29:17;;;;;;;;;;;21.00;81.30;;;;;;5043039;28;19995;-67
2022/08/01 04:31:45;;;;;;;;;;;21.00;81.30;;;;;;5045465;28;19912;-67
2022/08/01 04:34:12;;;;;;;;;;;21.00;81.30;;;;;;5040629;28;20374;-68
2022/08/01 04:36:41;;;;;;;;;;;21.00;81.20;;;;;;5032971;28;20463;-68
2022/08/01 04:39:08;;;;;;;;;;;21.00;81.20;;;;;;5049647;28;19916;-68
2022/08/01 04:41:35;;;;;;;;;;;21.00;81.20;;;;;;5048623;28;19982;-68
2022/08/01 04:44:02;;;;;;;;;;;21.00;81.30;;;;;;5033213;28;19916;-68
2022/08/01 04:46:28;;;;;;;;;;;21.00;81.40;;;;;;5042712;28;20043;-68
2022/08/01 04:48:54;;;;;;;;;;;21.10;81.40;;;;;;5042225;28;19912;-68
2022/08/01 04:51:22;;;;;;;;;;;21.10;81.30;;;;;;5037915;28;19921;-68
2022/08/01 04:53:47;;;;;;;;;;;21.10;81.30;;;;;;5035878;28;19908;-68
2022/08/01 04:56:13;;;;;;;;;;;21.10;81.30;;;;;;5037770;28;19936;-68
2022/08/01 04:58:42;;;;;;;;;;;21.10;81.20;;;;;;5057915;28;19912;-68
2022/08/01 05:01:08;;;;;;;;;;;21.20;81.40;;;;;;5032880;28;19998;-68
2022/08/01 05:03:33;;;;;;;;;;;21.20;81.30;;;;;;5040763;28;19956;-68
2022/08/01 05:05:59;;;;;;;;;;;21.20;81.30;;;;;;5031904;28;19917;-68
2022/08/01 05:08:24;;;;;;;;;;;21.20;81.40;;;;;;5040875;28;19915;-68
2022/08/01 05:10:50;;;;;;;;;;;21.20;81.50;;;;;;5043575;28;19943;-68
2022/08/01 05:13:15;;;;;;;;;;;21.10;81.60;;;;;;5038998;28;19921;-68
2022/08/01 05:15:41;;;;;;;;;;;21.10;81.70;;;;;;5041101;28;19917;-68
2022/08/01 05:18:07;;;;;;;;;;;21.10;81.70;;;;;;5040891;28;20781;-68
2022/08/01 05:20:32;;;;;;;;;;;21.20;81.80;;;;;;5051465;28;19933;-67
2022/08/01 05:22:58;;;;;;;;;;;21.20;81.70;;;;;;5053712;28;19908;-68
2022/08/01 05:25:23;;;;;;;;;;;21.20;81.70;;;;;;5038323;28;19924;-67
2022/08/01 05:27:49;;;;;;;;;;;21.20;81.70;;;;;;5038803;28;19917;-67
2022/08/01 05:30:15;;;;;;;;;;;21.20;81.70;;;;;;5034136;28;19920;-68
2022/08/01 05:32:40;;;;;;;;;;;21.10;81.60;;;;;;5047461;28;19979;-68
2022/08/01 05:35:07;;;;;;;;;;;21.20;81.70;;;;;;5041467;28;19916;-68
2022/08/01 05:37:32;;;;;;;;;;;21.20;81.80;;;;;;5043826;28;19938;-68
2022/08/01 05:39:58;;;;;;;;;;;21.20;81.70;;;;;;5041942;28;20321;-68
2022/08/01 05:42:26;;;;;;;;;;;21.20;81.70;;;;;;5045688;28;19913;-68
2022/08/01 05:44:51;;;;;;;;;;;21.20;81.60;;;;;;5048954;28;19918;-68
2022/08/01 05:47:17;;;;;;;;;;;21.30;81.40;;;;;;5049007;28;19999;-68
2022/08/01 05:49:43;;;;;;;;;;;21.30;81.40;;;;;;5048427;28;19909;-68
2022/08/01 05:52:09;;;;;;;;;;;21.30;81.50;;;;;;5046521;28;19916;-67
2022/08/01 05:54:34;;;;;;;;;;;21.20;81.60;;;;;;5048169;28;19920;-68
2022/08/01 05:57:01;;;;;;;;;;;21.20;81.60;;;;;;5045085;28;19919;-67
2022/08/01 05:59:27;;;;;;;;;;;21.20;81.60;;;;;;5067177;28;19904;-67
2022/08/01 06:01:53;;;;;;;;;;;21.30;81.60;;;;;;5041813;28;19916;-67
2022/08/01 06:04:18;;;;;;;;;;;21.30;81.50;;;;;;5059876;28;19910;-68
2022/08/01 06:06:46;;;;;;;;;;;21.30;81.50;;;;;;5043051;28;19921;-67
2022/08/01 06:09:12;;;;;;;;;;;21.40;81.50;;;;;;5057545;28;20406;-67
2022/08/01 06:11:37;;;;;;;;;;;21.40;81.50;;;;;;5049841;28;19917;-67
2022/08/01 06:14:03;;;;;;;;;;;21.40;81.40;;;;;;5068496;28;20011;-68
2022/08/01 06:16:28;;;;;;;;;;;21.40;81.40;;;;;;5048524;28;19992;-67
2022/08/01 06:18:54;;;;;;;;;;;21.50;81.30;;;;;;5048509;28;19971;-67
2022/08/01 06:21:20;;;;;;;;;;;21.50;81.30;;;;;;5063967;28;19912;-67
2022/08/01 06:23:45;;;;;;;;;;;21.50;81.10;;;;;;5062808;28;19915;-67
2022/08/01 06:26:11;;;;;;;;;;;21.40;81.00;;;;;;5047229;28;20015;-67
2022/08/01 06:28:38;;;;;;;;;;;21.30;81.00;;;;;;5049725;28;20337;-69
2022/08/01 06:31:03;;;;;;;;;;;21.30;81.00;;;;;;5044244;28;19944;-69
2022/08/01 06:33:29;;;;;;;;;;;21.30;80.90;;;;;;5051602;28;19943;-69
2022/08/01 06:35:55;;;;;;;;;;;21.30;80.90;;;;;;5045962;28;19948;-69
2022/08/01 06:38:20;;;;;;;;;;;21.40;80.80;;;;;;5043762;28;19913;-69
2022/08/01 06:40:46;;;;;;;;;;;21.40;80.70;;;;;;5046997;28;19912;-69
2022/08/01 06:43:11;;;;;;;;;;;21.40;80.60;;;;;;5045412;28;19909;-69
2022/08/01 06:45:40;;;;;;;;;;;21.50;80.50;;;;;;5047794;28;19919;-68
2022/08/01 06:48:06;;;;;;;;;;;21.50;80.50;;;;;;5046385;28;19920;-68
2022/08/01 06:50:31;;;;;;;;;;;21.60;81.00;;;;;;5049040;28;19917;-68
2022/08/01 06:52:57;;;;;;;;;;;21.60;80.20;;;;;;5047554;28;19916;-68
2022/08/01 06:55:22;;;;;;;;;;;21.70;80.20;;;;;;5047330;28;19917;-68
2022/08/01 06:57:48;;;;;;;;;;;21.70;80.20;;;;;;5049556;28;19908;-68
2022/08/01 07:00:16;;;;;;;;;;;21.80;80.10;;;;;;5041699;28;19958;-68
2022/08/01 07:02:41;;;;;;;;;;;21.80;79.70;;;;;;5045302;28;19913;-68
2022/08/01 07:05:07;;;;;;;;;;;21.90;79.70;;;;;;5048077;28;19924;-69
2022/08/01 07:07:33;;;;;;;;;;;21.90;79.70;;;;;;5046674;28;19916;-69
2022/08/01 07:09:58;;;;;;;;;;;21.80;79.60;;;;;;5050234;28;19996;-69
2022/08/01 07:12:24;;;;;;;;;;;21.90;79.70;;;;;;5049695;28;19951;-70
2022/08/01 07:14:49;;;;;;;;;;;21.90;79.50;;;;;;5049742;28;19920;-69
2022/08/01 07:17:15;;;;;;;;;;;22.00;79.40;;;;;;5048184;28;19917;-69
2022/08/01 07:19:40;;;;;;;;;;;22.00;79.30;;;;;;5045203;28;19921;-69
2022/08/01 07:22:06;;;;;;;;;;;22.00;79.00;;;;;;5045699;28;19920;-69
2022/08/01 07:24:31;;;;;;;;;;;22.10;79.10;;;;;;5044917;28;19925;-66
2022/08/01 07:27:00;;;;;;;;;;;22.10;79.10;;;;;;5064298;28;19920;-67
2022/08/01 07:29:26;;;;;;;;;;;22.10;78.90;;;;;;5050571;28;19943;-69
2022/08/01 07:31:53;;;;;;;;;;;22.10;78.90;;;;;;5051136;28;19912;-67
2022/08/01 07:34:18;;;;;;;;;;;22.10;78.70;;;;;;5037790;28;20039;-67
2022/08/01 07:36:44;;;;;;;;;;;22.10;78.70;;;;;;5036391;28;20015;-68
2022/08/01 07:39:10;;;;;;;;;;;22.10;78.60;;;;;;5037749;28;19913;-68
2022/08/01 07:41:44;;;;;;;;;;;22.20;78.70;;;;;;5052512;28;19920;-68
2022/08/01 07:44:09;;;;;;;;;;;22.10;78.50;;;;;;5042954;28;19917;-68
2022/08/01 07:46:35;;;;;;;;;;;22.10;78.40;;;;;;5041301;28;19924;-68
2022/08/01 07:49:01;;;;;;;;;;;22.10;78.40;;;;;;5039231;28;19920;-68
2022/08/01 07:51:26;;;;;;;;;;;22.20;78.40;;;;;;5039902;28;20312;-68
2022/08/01 07:53:52;;;;;;;;;;;22.20;78.40;;;;;;5041872;28;20859;-67
2022/08/01 07:56:17;;;;;;;;;;;22.20;78.20;;;;;;5037916;28;19944;-69
2022/08/01 07:58:43;;;;;;;;;;;22.30;78.30;;;;;;5043689;28;19916;-69
2022/08/01 08:01:09;;;;;;;;;;;22.30;78.40;;;;;;5047460;28;20065;-69
2022/08/01 08:03:34;;;;;;;;;;;22.20;78.30;;;;;;5053078;28;20391;-69
2022/08/01 08:06:00;;;;;;;;;;;22.20;78.30;;;;;;5059948;28;19955;-69
2022/08/01 08:08:25;;;;;;;;;;;22.20;78.30;;;;;;5046350;28;20030;-69
2022/08/01 08:10:51;;;;;;;;;;;22.20;78.40;;;;;;5043359;28;20019;-69
2022/08/01 08:13:16;;;;;;;;;;;22.10;78.40;;;;;;5044719;28;20050;-69
2022/08/01 08:15:42;;;;;;;;;;;22.10;78.50;;;;;;5039760;28;19909;-69
2022/08/01 08:18:07;;;;;;;;;;;22.10;78.70;;;;;;5045569;28;19916;-69
2022/08/01 08:20:33;;;;;;;;;;;22.10;78.80;;;;;;5047633;28;19927;-68
2022/08/01 08:22:58;;;;;;;;;;;22.10;78.80;;;;;;5042676;28;19963;-68
2022/08/01 08:25:24;;;;;;;;;;;22.10;78.60;;;;;;5048567;28;19927;-69
2022/08/01 08:27:50;;;;;;;;;;;22.10;78.60;;;;;;5073240;28;19928;-70
2022/08/01 08:30:16;;;;;;;;;;;22.10;78.70;;;;;;5049333;28;19912;-68
2022/08/01 08:32:41;;;;;;;;;;;22.10;78.30;;;;;;5047104;28;20279;-69
2022/08/01 08:35:08;;;;;;;;;;;22.20;78.30;;;;;;5044037;28;19917;-69
2022/08/01 08:37:34;;;;;;;;;;;22.20;78.30;;;;;;5048148;28;19923;-68
2022/08/01 08:39:59;;;;;;;;;;;22.20;78.20;;;;;;5049142;28;19958;-69
2022/08/01 08:42:25;;;;;;;;;;;22.40;78.20;;;;;;5060209;28;20327;-68
2022/08/01 08:44:50;;;;;;;;;;;22.40;78.10;;;;;;5046514;28;20399;-68
2022/08/01 08:47:17;;;;;;;;;;;22.40;77.80;;;;;;5039492;28;19971;-68
2022/08/01 08:49:43;;;;;;;;;;;22.40;77.50;;;;;;5045617;28;19908;-68
2022/08/01 08:52:09;;;;;;;;;;;22.50;77.40;;;;;;5051784;28;19920;-68
2022/08/01 08:54:36;;;;;;;;;;;22.50;77.40;;;;;;5044738;28;19963;-68
2022/08/01 08:57:02;;;;;;;;;;;22.50;77.40;;;;;;5044749;28;19923;-68
2022/08/01 08:59:28;;;;;;;;;;;22.50;77.40;;;;;;5052443;28;19905;-68
2022/08/01 09:01:53;;;;;;;;;;;22.50;77.40;;;;;;5062250;28;20008;-68
2022/08/01 09:04:22;;;;;;;;;;;22.40;77.50;;;;;;5049654;28;19920;-68
2022/08/01 09:06:47;;;;;;;;;;;22.30;77.80;;;;;;5049178;28;19995;-67
2022/08/01 09:09:13;;;;;;;;;;;22.10;78.00;;;;;;5050243;28;20344;-68
2022/08/01 09:11:39;;;;;;;;;;;21.90;78.30;;;;;;5047456;28;20043;-68
2022/08/01 09:14:06;;;;;;;;;;;21.90;78.50;;;;;;5064950;28;19958;-67
2022/08/01 09:16:32;;;;;;;;;;;21.80;78.60;;;;;;5067702;28;19913;-66
2022/08/01 09:19:08;;;;;;;;;;;21.70;78.80;;;;;;5069249;28;19913;-67
2022/08/01 09:21:34;;;;;;;;;;;21.70;78.80;;;;;;5068962;28;20286;-68
2022/08/01 09:24:02;;;;;;;;;;;21.70;79.00;;;;;;5068199;28;19917;-68
2022/08/01 09:26:35;;;;;;;;;;;21.70;79.00;;;;;;5068803;28;20591;-68
2022/08/01 09:29:02;;;;;;;;;;;21.80;79.00;;;;;;5054174;28;19932;-68
2022/08/01 09:31:29;;;;;;;;;;;21.90;78.90;;;;;;5052662;28;19967;-69
2022/08/01 09:34:00;;;;;;;;;;;22.00;78.80;;;;;;5052761;28;20291;-68
2022/08/01 09:36:42;;;;;;;;;;;22.10;78.70;;;;;;5047444;28;20454;-69
2022/08/01 09:39:12;;;;;;;;;;;22.10;78.70;;;;;;5051160;28;19940;-68
2022/08/01 09:41:37;;;;;;;;;;;22.20;78.60;;;;;;5045095;28;19952;-69
2022/08/01 09:44:03;;;;;;;;;;;22.20;78.40;;;;;;5047810;28;19947;-68
2022/08/01 09:46:28;;;;;;;;;;;22.20;78.50;;;;;;5048007;28;19990;-68
2022/08/01 09:49:12;;;;;;;;;;;22.10;78.50;;;;;;5048944;28;19956;-68
2022/08/01 09:51:38;;;;;;;;;;;22.10;78.50;;;;;;5043300;28;20431;-68
2022/08/01 09:54:05;;;;;;;;;;;22.10;78.80;;;;;;5052224;28;19995;-68
2022/08/01 09:56:41;;;;;;;;;;;22.10;78.90;;;;;;5052002;28;20240;-68
2022/08/01 09:59:07;;;;;;;;;;;22.10;78.90;;;;;;5050650;28;19946;-69
2022/08/01 10:01:46;;;;;;;;;;;22.10;78.90;;;;;;5051776;28;19908;-69
2022/08/01 10:04:20;;;;;;;;;;;22.10;78.90;;;;;;5047545;28;19919;-68
2022/08/01 10:06:49;;;;;;;;;;;22.10;78.70;;;;;;5048119;28;19970;-68
2022/08/01 10:09:14;;;;;;;;;;;22.10;78.40;;;;;;5060125;28;19962;-69
2022/08/01 10:11:41;;;;;;;;;;;22.10;78.50;;;;;;5047891;28;20315;-69
2022/08/01 10:14:07;;;;;;;;;;;22.20;78.60;;;;;;5052806;28;19917;-69
2022/08/01 10:16:33;;;;;;;;;;;22.30;78.60;;;;;;5052846;28;19961;-69
2022/08/01 10:19:00;;;;;;;;;;;22.40;78.60;;;;;;5052136;28;20666;-68
2022/08/01 10:21:27;;;;;;;;;;;22.40;78.40;;;;;;5066385;28;19915;-69
2022/08/01 10:23:54;;;;;;;;;;;22.40;78.20;;;;;;5052592;28;19916;-69
2022/08/01 10:26:19;;;;;;;;;;;22.40;78.10;;;;;;5044504;28;19924;-68
2022/08/01 10:28:47;;;;;;;;;;;22.50;78.20;;;;;;5051429;28;19909;-68
2022/08/01 10:31:13;;;;;;;;;;;22.50;78.10;;;;;;5052127;28;19927;-68
2022/08/01 10:33:41;;;;;;;;;;;22.50;78.00;;;;;;5052950;28;19905;-68
2022/08/01 10:36:06;;;;;;;;;;;22.50;77.90;;;;;;5052650;28;19905;-68
2022/08/01 10:38:33;;;;;;;;;;;22.50;78.00;;;;;;5051890;28;19920;-68
2022/08/01 10:40:59;;;;;;;;;;;22.60;77.90;;;;;;5051181;28;19943;-68
2022/08/01 10:43:24;;;;;;;;;;;22.60;77.80;;;;;;5067328;28;19935;-68
2022/08/01 10:45:50;;;;;;;;;;;22.60;77.90;;;;;;5051562;28;20275;-68
2022/08/01 10:48:38;;;;;;;;;;;22.70;77.90;;;;;;5051260;28;19909;-69
2022/08/01 10:51:04;;;;;;;;;;;22.70;77.70;;;;;;5059391;28;20389;-69
2022/08/01 10:53:30;;;;;;;;;;;22.60;77.80;;;;;;5051769;28;19972;-68
2022/08/01 10:55:55;;;;;;;;;;;22.60;77.70;;;;;;5063319;28;19912;-68
2022/08/01 10:58:25;;;;;;;;;;;22.60;77.80;;;;;;5039732;28;20347;-68
2022/08/01 11:01:08;;;;;;;;;;;22.70;77.90;;;;;;5044666;28;20315;-69
2022/08/01 11:03:35;;;;;;;;;;;22.80;77.50;;;;;;5042362;28;20680;-68
2022/08/01 11:06:03;;;;;;;;;;;22.90;77.20;;;;;;5039524;28;19959;-69
2022/08/01 11:08:30;;;;;;;;;;;22.90;77.00;;;;;;5045978;28;19983;-68
2022/08/01 11:11:00;;;;;;;;;;;23.00;76.80;;;;;;5040073;28;19913;-68
2022/08/01 11:13:45;;;;;;;;;;;23.10;76.80;;;;;;5047049;28;20322;-68
2022/08/01 11:16:27;;;;;;;;;;;23.20;76.40;;;;;;5046463;28;19909;-68
2022/08/01 11:18:53;;;;;;;;;;;23.20;76.30;;;;;;5048140;28;19959;-69
2022/08/01 11:21:19;;;;;;;;;;;23.30;76.00;;;;;;5048811;28;19917;-68
2022/08/01 11:23:48;;;;;;;;;;;23.40;75.90;;;;;;5044567;28;19917;-69
2022/08/01 11:26:14;;;;;;;;;;;23.60;75.90;;;;;;5050526;28;19908;-69
2022/08/01 11:28:40;;;;;;;;;;;23.70;75.60;;;;;;5052023;28;19908;-68
2022/08/01 11:31:10;;;;;;;;;;;23.90;74.90;;;;;;5051635;28;19915;-69
2022/08/01 11:33:39;;;;;;;;;;;24.10;74.20;;;;;;5046781;28;19917;-69
2022/08/01 11:36:10;;;;;;;;;;;24.20;73.60;;;;;;5048832;28;20330;-69
2022/08/01 11:38:41;;;;;;;;;;;24.20;73.00;;;;;;5042997;28;19962;-69
2022/08/01 11:41:25;;;;;;;;;;;24.20;72.80;;;;;;5047403;28;19917;-69
2022/08/01 11:43:54;;;;;;;;;;;24.20;72.10;;;;;;5042965;28;20296;-68
2022/08/01 11:46:20;;;;;;;;;;;24.00;72.10;;;;;;5050695;28;19920;-69
2022/08/01 11:48:47;;;;;;;;;;;24.00;72.40;;;;;;5051295;28;20336;-69
2022/08/01 11:51:15;;;;;;;;;;;23.90;72.60;;;;;;5046834;28;19976;-69
2022/08/01 11:53:47;;;;;;;;;;;23.90;72.80;;;;;;5045230;28;19912;-69
2022/08/01 11:56:12;;;;;;;;;;;24.00;72.80;;;;;;5051035;28;19991;-70
2022/08/01 11:58:38;;;;;;;;;;;24.10;72.70;;;;;;5052598;28;19944;-68
2022/08/01 12:01:14;;;;;;;;;;;24.20;72.60;;;;;;5093436;27;19923;-69
2022/08/01 12:03:40;;;;;;;;;;;24.30;72.30;;;;;;5089170;28;19958;-69
2022/08/01 12:06:05;;;;;;;;;;;24.40;71.70;;;;;;5093120;28;19920;-69
2022/08/01 12:08:36;;;;;;;;;;;24.50;71.20;;;;;;5108612;28;19912;-69
2022/08/01 12:11:03;;;;;;;;;;;24.60;70.50;;;;;;5106149;28;19945;-68
2022/08/01 12:13:39;;;;;;;;;;;24.70;70.30;;;;;;5101799;28;19910;-68
2022/08/01 12:16:08;;;;;;;;;;;24.70;69.60;;;;;;5088326;28;19946;-69
2022/08/01 12:18:40;;;;;;;;;;;24.70;69.20;;;;;;5079121;28;20008;-69
2022/08/01 12:21:06;;;;;;;;;;;24.70;69.20;;;;;;5081297;28;19999;-69
2022/08/01 12:23:31;;;;;;;;;;;24.70;68.70;;;;;;5088186;28;19996;-69
2022/08/01 12:25:57;;;;;;;;;;;24.70;68.30;;;;;;5087915;28;19913;-69
2022/08/01 12:28:22;;;;;;;;;;;24.70;68.30;;;;;;5087671;28;20294;-69
2022/08/01 12:30:48;;;;;;;;;;;24.70;67.90;;;;;;5087978;28;19912;-69
2022/08/01 12:33:17;;;;;;;;;;;24.70;67.50;;;;;;5084906;28;19966;-69
2022/08/01 12:35:43;;;;;;;;;;;24.70;67.70;;;;;;5084090;28;20279;-69
2022/08/01 12:38:15;;;;;;;;;;;24.80;68.00;;;;;;5081867;28;19966;-69
2022/08/01 12:40:42;;;;;;;;;;;25.00;68.00;;;;;;5076734;28;19919;-69
2022/08/01 12:43:09;;;;;;;;;;;25.20;67.80;;;;;;5100677;28;19908;-69
2022/08/01 12:45:37;;;;;;;;;;;25.30;67.60;;;;;;5088186;28;19948;-69
2022/08/01 12:48:07;;;;;;;;;;;25.30;67.30;;;;;;5087706;28;19913;-69
2022/08/01 12:50:33;;;;;;;;;;;25.30;66.40;;;;;;5087331;28;20026;-69
2022/08/01 12:52:58;;;;;;;;;;;25.20;66.40;;;;;;5096570;28;19995;-69
2022/08/01 12:55:25;;;;;;;;;;;25.10;66.40;;;;;;5072124;28;20023;-69
2022/08/01 12:58:03;;;;;;;;;;;25.00;66.30;;;;;;5081072;28;20363;-69
2022/08/01 13:00:29;;;;;;;;;;;24.90;65.60;;;;;;5082508;28;20724;-68
2022/08/01 13:03:05;;;;;;;;;;;24.80;66.20;;;;;;5082009;28;19912;-68
2022/08/01 13:05:50;;;;;;;;;;;24.80;65.50;;;;;;5083219;28;19913;-68
2022/08/01 13:08:17;;;;;;;;;;;24.70;65.70;;;;;;5094315;28;20266;-68
2022/08/01 13:10:43;;;;;;;;;;;24.60;66.40;;;;;;5088071;28;19924;-69
2022/08/01 13:13:09;;;;;;;;;;;24.60;65.30;;;;;;5079769;28;19913;-69
2022/08/01 13:15:36;;;;;;;;;;;24.60;64.90;;;;;;5082029;28;19923;-69
2022/08/01 13:18:22;;;;;;;;;;;24.50;64.20;;;;;;5071281;28;19944;-68
2022/08/01 13:20:47;;;;;;;;;;;24.50;64.00;;;;;;5067161;28;20388;-68
2022/08/01 13:23:14;;;;;;;;;;;24.40;64.50;;;;;;5080012;28;19967;-68
2022/08/01 13:25:53;;;;;;;;;;;24.50;64.10;;;;;;5078965;28;19991;-68
2022/08/01 13:28:22;;;;;;;;;;;24.50;64.40;;;;;;5090923;28;19917;-68
2022/08/01 13:30:57;;;;;;;;;;;24.60;64.10;;;;;;5071675;28;19908;-68
2022/08/01 13:33:24;;;;;;;;;;;24.60;63.50;;;;;;5084402;28;19920;-68
2022/08/01 13:35:51;;;;;;;;;;;24.70;63.30;;;;;;5087778;28;20315;-69
2022/08/01 13:38:16;;;;;;;;;;;24.80;63.30;;;;;;5077585;28;19913;-68
2022/08/01 13:40:42;;;;;;;;;;;25.10;63.20;;;;;;5091087;28;19926;-68
2022/08/01 13:43:08;;;;;;;;;;;25.50;62.80;;;;;;5092084;28;19925;-68
2022/08/01 13:45:34;;;;;;;;;;;25.90;61.90;;;;;;5078717;28;20300;-68
2022/08/01 13:47:59;;;;;;;;;;;26.30;59.90;;;;;;5094247;27;20528;-68
2022/08/01 13:50:25;;;;;;;;;;;26.60;59.10;;;;;;5095726;28;19956;-68
2022/08/01 13:52:50;;;;;;;;;;;26.60;59.30;;;;;;5073369;28;20390;-68
2022/08/01 13:55:16;;;;;;;;;;;26.60;59.20;;;;;;5067187;28;20391;-68
2022/08/01 13:57:41;;;;;;;;;;;26.60;59.10;;;;;;5067606;28;20419;-68
2022/08/01 14:00:08;;;;;;;;;;;26.70;59.30;;;;;;5064677;28;19934;-68
2022/08/01 14:02:34;;;;;;;;;;;27.00;59.00;;;;;;5061090;28;20445;-68
2022/08/01 14:04:59;;;;;;;;;;;27.30;58.50;;;;;;5069521;28;19925;-68
2022/08/01 14:07:25;;;;;;;;;;;27.20;57.10;;;;;;5065514;28;19916;-68
2022/08/01 14:09:50;;;;;;;;;;;26.90;57.20;;;;;;5062356;28;20420;-68
2022/08/01 14:12:16;;;;;;;;;;;26.80;57.70;;;;;;5071074;28;19920;-68
2022/08/01 14:14:41;;;;;;;;;;;26.80;56.90;;;;;;5070033;28;19943;-68
2022/08/01 14:17:07;;;;;;;;;;;26.80;57.10;;;;;;5070880;28;19928;-69